createdAt,value
2018-07-23T00:03:27.397Z,87.90
2018-07-23T00:08:22.180Z,86.66
2018-07-23T00:13:16.855Z,87.61
2018-07-23T00:18:11.526Z,88.30
2018-07-23T00:23:06.235Z,86.83
2018-07-23T00:28:00.711Z,87.77
2018-07-23T00:32:55.325Z,87.11
2018-07-23T00:37:49.947Z,87.40
2018-07-23T00:42:44.547Z,87.36
2018-07-23T00:47:39.354Z,86.56
2018-07-23T00:52:34.064Z,86.54
2018-07-23T00:57:28.690Z,88.34
2018-07-23T01:02:23.359Z,87.86
2018-07-23T01:07:18.263Z,88.82
2018-07-23T01:12:13.176Z,87.06
2018-07-23T01:17:07.796Z,86.97
2018-07-23T01:22:02.463Z,87.94
2018-07-23T01:26:57.067Z,87.70
2018-07-23T01:31:51.723Z,88.38
2018-07-23T01:36:46.321Z,87.64
2018-07-23T01:41:40.951Z,87.70
2018-07-23T01:46:35.536Z,88.21
2018-07-23T01:51:30.144Z,87.88
2018-07-23T01:56:24.730Z,88.63
2018-07-23T02:01:19.378Z,86.42
2018-07-23T02:06:14.032Z,87.03
2018-07-23T02:11:08.896Z,87.20
2018-07-23T02:16:03.503Z,88.09
2018-07-23T02:20:58.160Z,87.06
2018-07-23T02:25:52.773Z,86.48
2018-07-23T02:30:47.394Z,87.23
2018-07-23T02:35:42.068Z,88.11
2018-07-23T02:40:36.675Z,88.08
2018-07-23T02:45:31.317Z,88.91
2018-07-23T02:50:25.964Z,87.42
2018-07-23T02:55:20.674Z,86.84
2018-07-23T03:00:15.277Z,86.68
2018-07-23T03:05:09.935Z,86.85
2018-07-23T03:10:05.075Z,86.12
2018-07-23T03:14:59.651Z,86.75
2018-07-23T03:19:54.224Z,86.55
2018-07-23T03:24:48.770Z,87.04
2018-07-23T03:29:43.401Z,88.20
2018-07-23T03:34:38.009Z,87.62
2018-07-23T03:39:32.583Z,87.63
2018-07-23T03:44:27.415Z,87.12
2018-07-23T03:49:22.244Z,87.41
2018-07-23T03:54:17.241Z,87.35
2018-07-23T03:59:12.733Z,88.03
2018-07-23T04:04:07.725Z,87.99
2018-07-23T04:09:02.365Z,88.38
2018-07-23T04:13:56.971Z,86.97
2018-07-23T04:18:51.620Z,87.24
2018-07-23T04:23:46.293Z,87.20
2018-07-23T04:28:40.822Z,86.43
2018-07-23T04:33:35.415Z,86.22
2018-07-23T04:38:30.146Z,86.41
2018-07-23T04:43:24.834Z,86.43
2018-07-23T04:48:19.498Z,85.94
2018-07-23T04:53:14.105Z,85.65
2018-07-23T04:58:08.739Z,85.68
2018-07-23T05:03:03.375Z,85.09
2018-07-23T05:07:57.982Z,84.48
2018-07-23T05:12:52.603Z,84.21
2018-07-23T05:17:47.227Z,84.77
2018-07-23T05:22:41.835Z,85.82
2018-07-23T05:27:36.467Z,85.49
2018-07-23T05:32:31.095Z,84.44
2018-07-23T05:37:25.752Z,83.17
2018-07-23T05:42:20.403Z,81.90
2018-07-23T05:47:15.003Z,82.76
2018-07-23T05:52:09.650Z,83.33
2018-07-23T05:57:04.368Z,82.36
2018-07-23T06:01:59.077Z,81.20
2018-07-23T06:06:53.796Z,81.24
2018-07-23T06:11:49.371Z,80.60
2018-07-23T06:16:43.939Z,80.44
2018-07-23T06:21:38.586Z,80.23
2018-07-23T06:26:33.271Z,81.01
2018-07-23T06:31:27.978Z,80.26
2018-07-23T06:36:22.613Z,80.53
2018-07-23T06:41:17.271Z,79.87
2018-07-23T06:46:11.937Z,79.66
2018-07-23T06:51:06.587Z,80.67
2018-07-23T06:56:01.303Z,79.81
2018-07-23T07:00:56.935Z,80.67
2018-07-23T07:05:51.563Z,80.30
2018-07-23T07:10:46.220Z,79.73
2018-07-23T07:15:40.914Z,79.79
2018-07-23T07:20:35.551Z,77.29
2018-07-23T07:25:30.300Z,73.70
2018-07-23T07:30:24.826Z,72.26
2018-07-23T07:35:19.439Z,73.96
2018-07-23T07:40:14.028Z,70.14
2018-07-23T07:45:08.827Z,74.10
2018-07-23T07:50:03.472Z,71.78
2018-07-23T07:54:58.100Z,71.19
2018-07-23T07:59:52.752Z,74.18
2018-07-23T08:04:47.377Z,75.35
2018-07-23T08:09:42.028Z,76.90
2018-07-23T08:14:36.715Z,70.78
2018-07-23T08:19:31.411Z,65.58
2018-07-23T08:24:26.040Z,68.56
2018-07-23T08:29:20.640Z,62.47
2018-07-23T08:34:15.234Z,63.22
2018-07-23T08:39:11.417Z,67.72
2018-07-23T08:44:06.160Z,64.86
2018-07-23T08:49:00.716Z,66.19
2018-07-23T08:53:55.331Z,69.15
2018-07-23T08:58:49.944Z,64.67
2018-07-23T09:03:44.527Z,61.80
2018-07-23T09:08:39.209Z,62.54
2018-07-23T09:13:33.734Z,63.42
2018-07-23T09:18:28.338Z,63.86
2018-07-23T09:23:22.930Z,64.40
2018-07-23T09:28:18.180Z,65.88
2018-07-23T09:33:12.732Z,66.19
2018-07-23T09:38:07.435Z,62.15
2018-07-23T09:43:02.231Z,63.85
2018-07-23T09:47:56.867Z,66.88
2018-07-23T09:52:51.476Z,63.23
2018-07-23T09:57:46.112Z,62.67
2018-07-23T10:02:40.751Z,60.86
2018-07-23T10:07:35.389Z,58.46
2018-07-23T10:12:30.059Z,60.31
2018-07-23T10:17:24.678Z,56.99
2018-07-23T10:22:19.367Z,57.77
2018-07-23T10:27:14.015Z,57.20
2018-07-23T10:32:08.682Z,54.64
2018-07-23T10:37:03.540Z,54.80
2018-07-23T10:41:58.146Z,55.19
2018-07-23T10:46:52.823Z,55.33
2018-07-23T10:51:47.484Z,54.35
2018-07-23T10:56:42.098Z,55.33
2018-07-23T11:01:36.749Z,57.35
2018-07-23T11:06:31.516Z,53.42
2018-07-23T11:11:26.112Z,55.54
2018-07-23T11:16:20.775Z,52.78
2018-07-23T11:21:15.384Z,52.57
2018-07-23T11:26:10.042Z,50.79
2018-07-23T11:31:04.785Z,51.62
2018-07-23T11:35:59.392Z,52.46
2018-07-23T11:40:54.037Z,50.60
2018-07-23T11:45:48.755Z,49.86
2018-07-23T11:50:43.379Z,50.14
2018-07-23T11:55:38.083Z,48.80
2018-07-23T12:00:32.548Z,47.43
2018-07-23T12:05:27.125Z,49.74
2018-07-23T12:10:21.756Z,48.21
2018-07-23T12:15:16.413Z,48.69
2018-07-23T12:20:10.982Z,50.50
2018-07-23T12:25:05.649Z,46.37
2018-07-23T12:30:00.216Z,48.77
2018-07-23T12:34:54.796Z,48.60
2018-07-23T12:39:49.466Z,49.46
2018-07-23T12:44:43.969Z,44.81
2018-07-23T12:49:38.648Z,48.71
2018-07-23T12:54:33.294Z,47.62
2018-07-23T12:59:27.891Z,48.19
2018-07-23T13:04:22.596Z,45.78
2018-07-23T13:09:17.274Z,47.54
2018-07-23T13:14:11.861Z,47.09
2018-07-23T13:19:06.658Z,46.45
2018-07-23T13:24:01.324Z,48.13
2018-07-23T13:28:55.940Z,46.74
2018-07-23T13:33:50.548Z,49.29
2018-07-23T13:38:45.185Z,48.38
2018-07-23T13:43:39.943Z,47.14
2018-07-23T13:48:34.575Z,47.57
2018-07-23T13:53:29.257Z,46.13
2018-07-23T13:58:23.831Z,49.32
2018-07-23T14:03:18.463Z,47.95
2018-07-23T14:08:13.065Z,48.92
2018-07-23T14:13:07.788Z,49.46
2018-07-23T14:18:02.360Z,49.09
2018-07-23T14:22:56.992Z,49.10
2018-07-23T14:27:51.567Z,48.03
2018-07-23T14:32:46.164Z,48.60
2018-07-23T14:37:40.858Z,48.64
2018-07-23T14:42:35.444Z,49.11
2018-07-23T14:47:30.319Z,49.75
2018-07-23T14:52:24.909Z,51.09
2018-07-23T14:57:19.519Z,48.19
2018-07-23T15:02:14.163Z,48.66
2018-07-23T15:07:09.207Z,48.46
2018-07-23T15:12:03.813Z,49.80
2018-07-23T15:16:58.445Z,51.06
2018-07-23T15:21:53.084Z,47.90
2018-07-23T15:26:47.657Z,49.09
2018-07-23T15:31:42.276Z,46.62
2018-07-23T15:36:36.862Z,46.24
2018-07-23T15:41:31.518Z,46.66
2018-07-23T15:46:26.171Z,48.67
2018-07-23T15:51:20.828Z,48.38
2018-07-23T15:56:15.753Z,46.33
2018-07-23T16:01:10.554Z,49.21
2018-07-23T16:06:05.599Z,47.51
2018-07-23T16:11:00.206Z,49.61
2018-07-23T16:15:54.863Z,46.53
2018-07-23T16:20:49.146Z,48.58
2018-07-23T16:25:43.772Z,49.87
2018-07-23T16:30:38.394Z,49.96
2018-07-23T16:35:36.051Z,48.33
2018-07-23T16:40:30.327Z,47.65
2018-07-23T16:45:24.972Z,46.72
2018-07-23T16:50:20.928Z,46.50
2018-07-23T16:55:15.563Z,49.53
2018-07-23T17:00:10.157Z,48.76
2018-07-23T17:05:04.914Z,49.09
2018-07-23T17:09:59.517Z,46.32
2018-07-23T17:14:54.209Z,47.33
2018-07-23T17:19:48.887Z,47.27
2018-07-23T17:24:43.547Z,48.54
2018-07-23T17:29:38.158Z,51.06
2018-07-23T17:34:32.763Z,50.29
2018-07-23T17:39:27.326Z,50.94
2018-07-23T17:44:21.903Z,52.73
2018-07-23T17:49:16.538Z,53.33
2018-07-23T17:54:11.151Z,53.15
2018-07-23T17:59:05.750Z,54.19
2018-07-23T18:04:00.464Z,55.92
2018-07-23T18:08:55.427Z,54.87
2018-07-23T18:13:49.699Z,53.37
2018-07-23T18:18:44.412Z,55.53
2018-07-23T18:23:39.058Z,57.32
2018-07-23T18:28:33.756Z,57.38
2018-07-23T18:33:28.348Z,57.58
2018-07-23T18:38:23.013Z,57.57
2018-07-23T18:43:17.591Z,58.91
2018-07-23T18:50:30.048Z,60.52
2018-07-23T18:55:24.712Z,60.12
2018-07-23T19:00:19.380Z,60.96
2018-07-23T19:05:14.074Z,61.68
2018-07-23T19:10:10.473Z,64.73
2018-07-23T19:15:06.270Z,65.97
2018-07-23T19:20:00.914Z,67.19
2018-07-23T19:24:55.597Z,67.81
2018-07-23T19:29:50.396Z,67.41
2018-07-23T19:34:45.034Z,68.59
2018-07-23T19:39:39.632Z,67.25
2018-07-23T19:44:34.293Z,68.07
2018-07-23T19:49:28.934Z,68.41
2018-07-23T19:54:23.530Z,70.39
2018-07-23T19:59:18.198Z,68.20
2018-07-23T20:04:12.922Z,68.55
2018-07-23T20:09:10.454Z,68.65
2018-07-23T20:14:05.142Z,68.88
2018-07-23T20:18:59.917Z,68.37
2018-07-23T20:23:54.570Z,70.24
2018-07-23T20:28:49.224Z,68.29
2018-07-23T20:33:43.643Z,68.71
2018-07-23T20:38:38.620Z,69.02
2018-07-23T20:43:33.736Z,68.74
2018-07-23T20:48:28.411Z,69.95
2018-07-23T20:53:23.162Z,70.30
2018-07-23T20:58:18.571Z,69.24
2018-07-23T21:03:13.190Z,69.25
2018-07-23T21:08:07.884Z,69.26
2018-07-23T21:13:02.788Z,69.88
2018-07-23T21:17:58.203Z,70.90
2018-07-23T21:22:52.864Z,70.51
2018-07-23T21:27:47.640Z,70.13
2018-07-23T21:32:42.231Z,71.53
2018-07-23T21:37:36.859Z,70.72
2018-07-23T21:42:31.538Z,71.03
2018-07-23T21:47:26.197Z,71.04
2018-07-23T21:52:20.928Z,71.89
2018-07-23T21:57:15.587Z,72.17
2018-07-23T22:02:10.359Z,70.94
2018-07-23T22:07:05.080Z,71.73
2018-07-23T22:11:59.765Z,71.60
2018-07-23T22:16:54.415Z,73.27
2018-07-23T22:21:49.145Z,73.80
2018-07-23T22:26:43.987Z,74.68
2018-07-23T22:31:38.681Z,73.91
2018-07-23T22:36:33.342Z,74.19
2018-07-23T22:41:27.669Z,74.87
2018-07-23T22:46:22.972Z,74.04
2018-07-23T22:51:17.633Z,74.60
2018-07-23T22:56:12.271Z,74.55
2018-07-23T23:01:07.156Z,75.68
2018-07-23T23:06:01.816Z,74.87
2018-07-23T23:10:56.502Z,76.10
2018-07-23T23:15:51.103Z,76.30
2018-07-23T23:20:45.734Z,76.59
2018-07-23T23:25:40.697Z,77.09
2018-07-23T23:30:35.285Z,76.81
2018-07-23T23:35:29.951Z,76.61
2018-07-23T23:40:24.664Z,75.13
2018-07-23T23:45:19.329Z,75.78
2018-07-23T23:50:13.938Z,76.76
2018-07-23T23:55:08.536Z,77.77
